sensor_id;sensor_type;location;lat;lon;timestamp;P1;durP1;ratioP1;P2;durP2;ratioP2
25653;SDS011;13511;48.622;9.230;2023-06-24T00:02:11;8.73;;;8.02;;
25653;SDS011;13511;48.622;9.230;2023-06-24T00:04:37;8.50;;;7.85;;
25653;SDS011;13511;48.622;9.230;2023-06-24T00:07:03;8.93;;;8.23;;
25653;SDS011;13511;48.622;9.230;2023-06-24T00:09:29;9.43;;;8.73;;
25653;SDS011;13511;48.622;9.230;2023-06-24T00:11:55;9.68;;;8.93;;
25653;SDS011;13511;48.622;9.230;2023-06-24T00:14:21;9.80;;;9.00;;
25653;SDS011;13511;48.622;9.230;2023-06-24T00:16:49;9.30;;;8.68;;
25653;SDS011;13511;48.622;9.230;2023-06-24T00:19:18;8.95;;;8.35;;
25653;SDS011;13511;48.622;9.230;2023-06-24T00:21:45;16.50;;;9.13;;
25653;SDS011;13511;48.622;9.230;2023-06-24T00:24:11;9.18;;;8.40;;
25653;SDS011;13511;48.622;9.230;2023-06-24T00:26:37;10.00;;;9.00;;
25653;SDS011;13511;48.622;9.230;2023-06-24T00:29:03;9.13;;;8.32;;
25653;SDS011;13511;48.622;9.230;2023-06-24T00:31:29;9.02;;;8.30;;
25653;SDS011;13511;48.622;9.230;2023-06-24T00:33:55;8.85;;;8.18;;
25653;SDS011;13511;48.622;9.230;2023-06-24T00:36:21;8.75;;;7.95;;
25653;SDS011;13511;48.622;9.230;2023-06-24T00:38:47;9.18;;;8.38;;
25653;SDS011;13511;48.622;9.230;2023-06-24T00:41:16;9.20;;;8.52;;
25653;SDS011;13511;48.622;9.230;2023-06-24T00:43:43;9.75;;;9.00;;
25653;SDS011;13511;48.622;9.230;2023-06-24T00:46:09;11.27;;;8.73;;
25653;SDS011;13511;48.622;9.230;2023-06-24T00:48:35;9.43;;;8.63;;
25653;SDS011;13511;48.622;9.230;2023-06-24T00:51:01;9.82;;;9.02;;
25653;SDS011;13511;48.622;9.230;2023-06-24T00:53:28;9.27;;;8.48;;
25653;SDS011;13511;48.622;9.230;2023-06-24T00:55:54;10.18;;;9.48;;
25653;SDS011;13511;48.622;9.230;2023-06-24T00:58:21;10.38;;;9.48;;
25653;SDS011;13511;48.622;9.230;2023-06-24T01:00:47;9.60;;;8.80;;
25653;SDS011;13511;48.622;9.230;2023-06-24T01:03:22;9.45;;;8.75;;
25653;SDS011;13511;48.622;9.230;2023-06-24T01:05:48;10.35;;;9.43;;
25653;SDS011;13511;48.622;9.230;2023-06-24T01:08:14;9.18;;;8.38;;
25653;SDS011;13511;48.622;9.230;2023-06-24T01:10:41;8.65;;;7.95;;
25653;SDS011;13511;48.622;9.230;2023-06-24T01:13:07;9.35;;;8.65;;
25653;SDS011;13511;48.622;9.230;2023-06-24T01:15:33;9.65;;;8.85;;
25653;SDS011;13511;48.622;9.230;2023-06-24T01:18:10;9.45;;;8.75;;
25653;SDS011;13511;48.622;9.230;2023-06-24T01:20:41;9.07;;;8.35;;
25653;SDS011;13511;48.622;9.230;2023-06-24T01:31:14;10.60;;;9.80;;
25653;SDS011;13511;48.622;9.230;2023-06-24T01:33:45;9.48;;;8.73;;
25653;SDS011;13511;48.622;9.230;2023-06-24T01:36:15;9.43;;;8.60;;
25653;SDS011;13511;48.622;9.230;2023-06-24T01:38:45;9.20;;;8.40;;
25653;SDS011;13511;48.622;9.230;2023-06-24T01:41:12;7.95;;;7.35;;
25653;SDS011;13511;48.622;9.230;2023-06-24T01:43:39;8.68;;;7.95;;
25653;SDS011;13511;48.622;9.230;2023-06-24T01:46:07;9.77;;;8.85;;
25653;SDS011;13511;48.622;9.230;2023-06-24T01:48:37;10.20;;;9.27;;
25653;SDS011;13511;48.622;9.230;2023-06-24T01:51:08;9.77;;;8.88;;
25653;SDS011;13511;48.622;9.230;2023-06-24T01:53:36;9.73;;;8.82;;
25653;SDS011;13511;48.622;9.230;2023-06-24T01:56:07;9.90;;;9.10;;
25653;SDS011;13511;48.622;9.230;2023-06-24T01:58:34;10.30;;;9.50;;
25653;SDS011;13511;48.622;9.230;2023-06-24T02:01:02;10.38;;;9.48;;
25653;SDS011;13511;48.622;9.230;2023-06-24T02:03:28;10.75;;;9.95;;
25653;SDS011;13511;48.622;9.230;2023-06-24T02:05:54;9.80;;;9.00;;
25653;SDS011;13511;48.622;9.230;2023-06-24T02:08:20;10.25;;;9.18;;
25653;SDS011;13511;48.622;9.230;2023-06-24T02:10:47;10.18;;;9.27;;
25653;SDS011;13511;48.622;9.230;2023-06-24T02:13:14;10.10;;;9.10;;
25653;SDS011;13511;48.622;9.230;2023-06-24T02:15:41;8.82;;;8.13;;
25653;SDS011;13511;48.622;9.230;2023-06-24T02:18:08;9.48;;;8.68;;
25653;SDS011;13511;48.622;9.230;2023-06-24T02:20:35;9.70;;;8.77;;
25653;SDS011;13511;48.622;9.230;2023-06-24T02:23:03;10.07;;;9.10;;
25653;SDS011;13511;48.622;9.230;2023-06-24T02:25:30;10.38;;;9.48;;
25653;SDS011;13511;48.622;9.230;2023-06-24T02:27:56;10.45;;;9.48;;
25653;SDS011;13511;48.622;9.230;2023-06-24T02:30:23;10.77;;;9.30;;
25653;SDS011;13511;48.622;9.230;2023-06-24T02:32:49;10.52;;;9.48;;
25653;SDS011;13511;48.622;9.230;2023-06-24T02:35:15;9.77;;;8.98;;
25653;SDS011;13511;48.622;9.230;2023-06-24T02:37:41;10.27;;;9.15;;
25653;SDS011;13511;48.622;9.230;2023-06-24T02:40:07;10.13;;;9.32;;
25653;SDS011;13511;48.622;9.230;2023-06-24T02:42:33;10.23;;;9.20;;
25653;SDS011;13511;48.622;9.230;2023-06-24T02:44:59;10.02;;;9.18;;
25653;SDS011;13511;48.622;9.230;2023-06-24T02:47:26;10.18;;;9.32;;
25653;SDS011;13511;48.622;9.230;2023-06-24T02:49:52;9.27;;;8.60;;
25653;SDS011;13511;48.622;9.230;2023-06-24T02:52:19;10.13;;;9.32;;
25653;SDS011;13511;48.622;9.230;2023-06-24T02:54:46;10.05;;;9.18;;
25653;SDS011;13511;48.622;9.230;2023-06-24T02:57:12;11.20;;;10.05;;
25653;SDS011;13511;48.622;9.230;2023-06-24T02:59:40;11.00;;;9.95;;
25653;SDS011;13511;48.622;9.230;2023-06-24T03:02:06;11.73;;;10.73;;
25653;SDS011;13511;48.622;9.230;2023-06-24T03:04:33;10.55;;;9.75;;
25653;SDS011;13511;48.622;9.230;2023-06-24T03:07:00;11.25;;;10.25;;
25653;SDS011;13511;48.622;9.230;2023-06-24T03:09:27;10.70;;;9.75;;
25653;SDS011;13511;48.622;9.230;2023-06-24T03:11:53;9.50;;;8.80;;
25653;SDS011;13511;48.622;9.230;2023-06-24T03:14:19;10.93;;;9.82;;
25653;SDS011;13511;48.622;9.230;2023-06-24T03:16:45;10.98;;;10.00;;
25653;SDS011;13511;48.622;9.230;2023-06-24T03:19:11;11.15;;;10.05;;
25653;SDS011;13511;48.622;9.230;2023-06-24T03:21:37;10.20;;;9.30;;
25653;SDS011;13511;48.622;9.230;2023-06-24T03:24:03;11.27;;;10.30;;
25653;SDS011;13511;48.622;9.230;2023-06-24T03:26:35;10.23;;;9.43;;
25653;SDS011;13511;48.622;9.230;2023-06-24T03:29:01;10.25;;;9.45;;
25653;SDS011;13511;48.622;9.230;2023-06-24T03:31:28;11.05;;;10.10;;
25653;SDS011;13511;48.622;9.230;2023-06-24T03:33:54;11.15;;;10.13;;
25653;SDS011;13511;48.622;9.230;2023-06-24T03:36:20;10.45;;;9.57;;
25653;SDS011;13511;48.622;9.230;2023-06-24T03:38:46;10.20;;;9.32;;
25653;SDS011;13511;48.622;9.230;2023-06-24T03:41:12;10.93;;;9.70;;
25653;SDS011;13511;48.622;9.230;2023-06-24T03:43:38;10.88;;;9.95;;
25653;SDS011;13511;48.622;9.230;2023-06-24T03:46:04;10.18;;;9.38;;
25653;SDS011;13511;48.622;9.230;2023-06-24T03:48:30;11.15;;;10.35;;
25653;SDS011;13511;48.622;9.230;2023-06-24T03:50:56;11.90;;;9.43;;
25653;SDS011;13511;48.622;9.230;2023-06-24T03:53:22;10.82;;;9.48;;
25653;SDS011;13511;48.622;9.230;2023-06-24T03:55:48;10.45;;;9.45;;
25653;SDS011;13511;48.622;9.230;2023-06-24T03:58:14;11.25;;;10.25;;
25653;SDS011;13511;48.622;9.230;2023-06-24T04:00:41;10.82;;;9.82;;
25653;SDS011;13511;48.622;9.230;2023-06-24T04:03:09;10.05;;;9.18;;
25653;SDS011;13511;48.622;9.230;2023-06-24T04:05:35;10.85;;;9.90;;
25653;SDS011;13511;48.622;9.230;2023-06-24T04:08:01;11.48;;;9.52;;
25653;SDS011;13511;48.622;9.230;2023-06-24T04:10:30;11.10;;;10.30;;
25653;SDS011;13511;48.622;9.230;2023-06-24T04:12:56;10.73;;;9.73;;
25653;SDS011;13511;48.622;9.230;2023-06-24T04:15:22;10.02;;;9.23;;
25653;SDS011;13511;48.622;9.230;2023-06-24T04:17:48;10.88;;;9.77;;
25653;SDS011;13511;48.622;9.230;2023-06-24T04:20:14;10.20;;;9.35;;
25653;SDS011;13511;48.622;9.230;2023-06-24T04:22:41;10.45;;;9.55;;
25653;SDS011;13511;48.622;9.230;2023-06-24T04:25:07;9.73;;;8.82;;
25653;SDS011;13511;48.622;9.230;2023-06-24T04:27:33;10.27;;;9.48;;
25653;SDS011;13511;48.622;9.230;2023-06-24T04:30:00;10.35;;;9.55;;
25653;SDS011;13511;48.622;9.230;2023-06-24T04:32:26;10.60;;;9.57;;
25653;SDS011;13511;48.622;9.230;2023-06-24T04:34:52;10.38;;;9.57;;
25653;SDS011;13511;48.622;9.230;2023-06-24T04:37:18;10.90;;;9.95;;
25653;SDS011;13511;48.622;9.230;2023-06-24T04:39:44;10.85;;;9.95;;
25653;SDS011;13511;48.622;9.230;2023-06-24T04:42:11;14.43;;;10.05;;
25653;SDS011;13511;48.622;9.230;2023-06-24T04:44:37;11.07;;;9.95;;
25653;SDS011;13511;48.622;9.230;2023-06-24T04:47:03;11.05;;;10.07;;
25653;SDS011;13511;48.622;9.230;2023-06-24T04:49:29;10.93;;;9.93;;
25653;SDS011;13511;48.622;9.230;2023-06-24T04:51:55;10.98;;;10.07;;
25653;SDS011;13511;48.622;9.230;2023-06-24T04:54:21;10.02;;;9.27;;
25653;SDS011;13511;48.622;9.230;2023-06-24T04:56:47;10.15;;;9.35;;
25653;SDS011;13511;48.622;9.230;2023-06-24T04:59:14;10.05;;;9.05;;
25653;SDS011;13511;48.622;9.230;2023-06-24T05:01:40;10.60;;;9.60;;
25653;SDS011;13511;48.622;9.230;2023-06-24T05:04:06;10.52;;;9.43;;
25653;SDS011;13511;48.622;9.230;2023-06-24T05:06:32;9.32;;;8.60;;
25653;SDS011;13511;48.622;9.230;2023-06-24T05:08:58;10.40;;;9.30;;
25653;SDS011;13511;48.622;9.230;2023-06-24T05:11:24;10.68;;;9.73;;
25653;SDS011;13511;48.622;9.230;2023-06-24T05:13:50;10.30;;;9.40;;
25653;SDS011;13511;48.622;9.230;2023-06-24T05:16:16;10.75;;;9.75;;
25653;SDS011;13511;48.622;9.230;2023-06-24T05:18:43;10.35;;;9.55;;
25653;SDS011;13511;48.622;9.230;2023-06-24T05:21:10;9.75;;;8.98;;
25653;SDS011;13511;48.622;9.230;2023-06-24T05:23:36;10.52;;;9.63;;
25653;SDS011;13511;48.622;9.230;2023-06-24T05:26:02;10.40;;;9.60;;
25653;SDS011;13511;48.622;9.230;2023-06-24T05:28:28;10.38;;;9.48;;
25653;SDS011;13511;48.622;9.230;2023-06-24T05:30:54;9.38;;;8.68;;
25653;SDS011;13511;48.622;9.230;2023-06-24T05:33:20;9.43;;;8.73;;
25653;SDS011;13511;48.622;9.230;2023-06-24T05:35:46;10.82;;;9.77;;
25653;SDS011;13511;48.622;9.230;2023-06-24T05:38:12;10.48;;;9.68;;
25653;SDS011;13511;48.622;9.230;2023-06-24T05:40:38;9.88;;;9.02;;
25653;SDS011;13511;48.622;9.230;2023-06-24T05:43:04;9.48;;;8.55;;
25653;SDS011;13511;48.622;9.230;2023-06-24T05:45:30;9.43;;;8.63;;
25653;SDS011;13511;48.622;9.230;2023-06-24T05:47:56;10.38;;;9.50;;
25653;SDS011;13511;48.622;9.230;2023-06-24T05:50:22;9.93;;;9.10;;
25653;SDS011;13511;48.622;9.230;2023-06-24T05:52:48;9.63;;;8.82;;
25653;SDS011;13511;48.622;9.230;2023-06-24T05:55:13;10.35;;;9.38;;
25653;SDS011;13511;48.622;9.230;2023-06-24T05:57:40;10.75;;;9.65;;
25653;SDS011;13511;48.622;9.230;2023-06-24T06:00:06;9.82;;;9.02;;
25653;SDS011;13511;48.622;9.230;2023-06-24T06:02:32;9.25;;;8.50;;
25653;SDS011;13511;48.622;9.230;2023-06-24T06:04:58;9.70;;;8.90;;
25653;SDS011;13511;48.622;9.230;2023-06-24T06:07:25;9.07;;;8.25;;
25653;SDS011;13511;48.622;9.230;2023-06-24T06:09:51;9.27;;;8.57;;
25653;SDS011;13511;48.622;9.230;2023-06-24T06:12:17;9.13;;;8.32;;
25653;SDS011;13511;48.622;9.230;2023-06-24T06:14:43;9.30;;;8.50;;
25653;SDS011;13511;48.622;9.230;2023-06-24T06:17:09;9.48;;;8.57;;
25653;SDS011;13511;48.622;9.230;2023-06-24T06:19:35;9.98;;;8.95;;
25653;SDS011;13511;48.622;9.230;2023-06-24T06:22:03;10.68;;;9.77;;
25653;SDS011;13511;48.622;9.230;2023-06-24T06:24:29;10.13;;;9.23;;
25653;SDS011;13511;48.622;9.230;2023-06-24T06:26:55;9.63;;;8.93;;
25653;SDS011;13511;48.622;9.230;2023-06-24T06:29:23;9.65;;;8.73;;
25653;SDS011;13511;48.622;9.230;2023-06-24T06:31:49;9.93;;;8.93;;
25653;SDS011;13511;48.622;9.230;2023-06-24T06:34:17;10.07;;;9.15;;
25653;SDS011;13511;48.622;9.230;2023-06-24T06:36:43;9.93;;;8.93;;
25653;SDS011;13511;48.622;9.230;2023-06-24T06:39:09;11.48;;;9.70;;
25653;SDS011;13511;48.622;9.230;2023-06-24T06:41:35;11.02;;;9.23;;
25653;SDS011;13511;48.622;9.230;2023-06-24T06:44:01;9.48;;;8.65;;
25653;SDS011;13511;48.622;9.230;2023-06-24T06:46:27;9.70;;;8.88;;
25653;SDS011;13511;48.622;9.230;2023-06-24T06:48:53;9.65;;;8.85;;
25653;SDS011;13511;48.622;9.230;2023-06-24T06:51:20;8.77;;;8.07;;
25653;SDS011;13511;48.622;9.230;2023-06-24T06:53:46;9.80;;;7.97;;
25653;SDS011;13511;48.622;9.230;2023-06-24T06:56:19;8.10;;;7.22;;
25653;SDS011;13511;48.622;9.230;2023-06-24T06:58:45;8.05;;;7.45;;
25653;SDS011;13511;48.622;9.230;2023-06-24T07:01:11;9.10;;;8.20;;
25653;SDS011;13511;48.622;9.230;2023-06-24T07:03:37;11.23;;;7.90;;
25653;SDS011;13511;48.622;9.230;2023-06-24T07:06:03;8.18;;;7.53;;
25653;SDS011;13511;48.622;9.230;2023-06-24T07:08:28;8.48;;;7.40;;
25653;SDS011;13511;48.622;9.230;2023-06-24T07:10:54;8.05;;;7.13;;
25653;SDS011;13511;48.622;9.230;2023-06-24T07:13:20;7.55;;;6.90;;
25653;SDS011;13511;48.622;9.230;2023-06-24T07:15:46;6.85;;;6.25;;
25653;SDS011;13511;48.622;9.230;2023-06-24T07:18:13;8.25;;;7.47;;
25653;SDS011;13511;48.622;9.230;2023-06-24T07:20:39;7.53;;;6.90;;
25653;SDS011;13511;48.622;9.230;2023-06-24T07:23:05;6.97;;;6.20;;
25653;SDS011;13511;48.622;9.230;2023-06-24T07:25:31;6.55;;;6.03;;
25653;SDS011;13511;48.622;9.230;2023-06-24T07:27:57;6.47;;;5.97;;
25653;SDS011;13511;48.622;9.230;2023-06-24T07:30:23;6.78;;;6.38;;
25653;SDS011;13511;48.622;9.230;2023-06-24T07:32:48;7.53;;;6.78;;
25653;SDS011;13511;48.622;9.230;2023-06-24T07:35:14;7.55;;;6.55;;
25653;SDS011;13511;48.622;9.230;2023-06-24T07:37:41;7.95;;;5.75;;
25653;SDS011;13511;48.622;9.230;2023-06-24T07:40:07;6.97;;;6.38;;
25653;SDS011;13511;48.622;9.230;2023-06-24T07:42:34;6.95;;;6.38;;
25653;SDS011;13511;48.622;9.230;2023-06-24T07:44:59;6.43;;;6.00;;
25653;SDS011;13511;48.622;9.230;2023-06-24T07:47:25;6.57;;;6.07;;
25653;SDS011;13511;48.622;9.230;2023-06-24T07:49:52;7.53;;;6.97;;
25653;SDS011;13511;48.622;9.230;2023-06-24T07:52:18;6.95;;;6.43;;
25653;SDS011;13511;48.622;9.230;2023-06-24T07:54:43;6.78;;;6.15;;
25653;SDS011;13511;48.622;9.230;2023-06-24T07:57:10;6.55;;;5.93;;
25653;SDS011;13511;48.622;9.230;2023-06-24T07:59:36;9.77;;;6.30;;
25653;SDS011;13511;48.622;9.230;2023-06-24T08:02:02;6.85;;;6.25;;
25653;SDS011;13511;48.622;9.230;2023-06-24T08:04:28;6.28;;;5.88;;
25653;SDS011;13511;48.622;9.230;2023-06-24T08:06:54;6.25;;;5.72;;
25653;SDS011;13511;48.622;9.230;2023-06-24T08:09:20;6.25;;;5.85;;
25653;SDS011;13511;48.622;9.230;2023-06-24T08:11:46;5.75;;;5.30;;
25653;SDS011;13511;48.622;9.230;2023-06-24T08:14:12;5.95;;;5.30;;
25653;SDS011;13511;48.622;9.230;2023-06-24T08:16:38;5.32;;;5.03;;
25653;SDS011;13511;48.622;9.230;2023-06-24T08:19:04;5.93;;;5.35;;
25653;SDS011;13511;48.622;9.230;2023-06-24T08:21:30;5.50;;;5.07;;
25653;SDS011;13511;48.622;9.230;2023-06-24T08:23:56;6.60;;;5.55;;
25653;SDS011;13511;48.622;9.230;2023-06-24T08:26:22;5.50;;;5.20;;
25653;SDS011;13511;48.622;9.230;2023-06-24T08:31:32;6.05;;;5.63;;
25653;SDS011;13511;48.622;9.230;2023-06-24T08:34:17;6.43;;;6.00;;
25653;SDS011;13511;48.622;9.230;2023-06-24T08:36:43;5.88;;;5.57;;
25653;SDS011;13511;48.622;9.230;2023-06-24T08:39:09;5.88;;;5.20;;
25653;SDS011;13511;48.622;9.230;2023-06-24T08:41:35;5.68;;;5.38;;
25653;SDS011;13511;48.622;9.230;2023-06-24T08:44:01;7.05;;;5.88;;
25653;SDS011;13511;48.622;9.230;2023-06-24T08:46:27;8.32;;;6.00;;
25653;SDS011;13511;48.622;9.230;2023-06-24T08:49:02;5.47;;;5.07;;
25653;SDS011;13511;48.622;9.230;2023-06-24T08:51:29;6.45;;;5.57;;
25653;SDS011;13511;48.622;9.230;2023-06-24T08:53:57;5.78;;;5.28;;
25653;SDS011;13511;48.622;9.230;2023-06-24T08:56:23;5.57;;;5.20;;
25653;SDS011;13511;48.622;9.230;2023-06-24T08:58:50;5.35;;;5.05;;
25653;SDS011;13511;48.622;9.230;2023-06-24T09:01:17;6.22;;;5.63;;
25653;SDS011;13511;48.622;9.230;2023-06-24T09:03:43;5.78;;;5.28;;
25653;SDS011;13511;48.622;9.230;2023-06-24T09:06:09;5.80;;;5.30;;
25653;SDS011;13511;48.622;9.230;2023-06-24T09:08:35;6.20;;;5.60;;
25653;SDS011;13511;48.622;9.230;2023-06-24T09:11:04;4.93;;;4.63;;
25653;SDS011;13511;48.622;9.230;2023-06-24T09:13:33;6.00;;;5.40;;
25653;SDS011;13511;48.622;9.230;2023-06-24T09:16:07;5.32;;;5.03;;
25653;SDS011;13511;48.622;9.230;2023-06-24T09:18:36;4.93;;;4.47;;
25653;SDS011;13511;48.622;9.230;2023-06-24T09:21:02;5.22;;;4.82;;
25653;SDS011;13511;48.622;9.230;2023-06-24T09:23:28;5.85;;;5.32;;
25653;SDS011;13511;48.622;9.230;2023-06-24T09:25:57;5.30;;;5.00;;
25653;SDS011;13511;48.622;9.230;2023-06-24T09:28:27;4.97;;;4.65;;
25653;SDS011;13511;48.622;9.230;2023-06-24T09:31:11;7.00;;;5.13;;
25653;SDS011;13511;48.622;9.230;2023-06-24T09:33:37;5.47;;;5.00;;
25653;SDS011;13511;48.622;9.230;2023-06-24T09:36:05;5.22;;;4.82;;
25653;SDS011;13511;48.622;9.230;2023-06-24T09:38:32;5.28;;;4.85;;
25653;SDS011;13511;48.622;9.230;2023-06-24T09:41:05;5.30;;;4.75;;
25653;SDS011;13511;48.622;9.230;2023-06-24T09:43:34;5.30;;;5.00;;
25653;SDS011;13511;48.622;9.230;2023-06-24T09:46:02;5.22;;;4.93;;
25653;SDS011;13511;48.622;9.230;2023-06-24T09:48:28;5.35;;;5.05;;
25653;SDS011;13511;48.622;9.230;2023-06-24T09:50:54;5.63;;;5.28;;
25653;SDS011;13511;48.622;9.230;2023-06-24T09:53:22;5.30;;;4.90;;
25653;SDS011;13511;48.622;9.230;2023-06-24T09:55:48;5.50;;;5.20;;
25653;SDS011;13511;48.622;9.230;2023-06-24T09:58:15;5.63;;;5.22;;
25653;SDS011;13511;48.622;9.230;2023-06-24T10:00:42;5.18;;;4.88;;
25653;SDS011;13511;48.622;9.230;2023-06-24T10:03:08;4.95;;;4.65;;
25653;SDS011;13511;48.622;9.230;2023-06-24T10:05:34;4.78;;;4.47;;
25653;SDS011;13511;48.622;9.230;2023-06-24T10:08:01;4.35;;;4.15;;
25653;SDS011;13511;48.622;9.230;2023-06-24T10:10:28;4.85;;;4.55;;
25653;SDS011;13511;48.622;9.230;2023-06-24T10:12:54;4.55;;;4.35;;
25653;SDS011;13511;48.622;9.230;2023-06-24T10:15:21;5.25;;;4.78;;
25653;SDS011;13511;48.622;9.230;2023-06-24T10:17:47;5.25;;;4.82;;
25653;SDS011;13511;48.622;9.230;2023-06-24T10:20:13;5.13;;;4.75;;
25653;SDS011;13511;48.622;9.230;2023-06-24T10:22:50;5.00;;;4.60;;
25653;SDS011;13511;48.622;9.230;2023-06-24T10:25:16;5.25;;;4.70;;
25653;SDS011;13511;48.622;9.230;2023-06-24T10:27:43;9.13;;;4.40;;
25653;SDS011;13511;48.622;9.230;2023-06-24T10:30:18;4.85;;;4.55;;
25653;SDS011;13511;48.622;9.230;2023-06-24T10:32:44;5.35;;;4.95;;
25653;SDS011;13511;48.622;9.230;2023-06-24T10:35:27;5.20;;;4.80;;
25653;SDS011;13511;48.622;9.230;2023-06-24T10:37:58;4.90;;;4.60;;
25653;SDS011;13511;48.622;9.230;2023-06-24T10:40:34;4.37;;;4.17;;
25653;SDS011;13511;48.622;9.230;2023-06-24T10:43:01;5.93;;;4.43;;
25653;SDS011;13511;48.622;9.230;2023-06-24T10:45:27;5.30;;;4.80;;
25653;SDS011;13511;48.622;9.230;2023-06-24T10:47:53;4.70;;;4.43;;
25653;SDS011;13511;48.622;9.230;2023-06-24T10:50:24;4.60;;;4.32;;
25653;SDS011;13511;48.622;9.230;2023-06-24T10:52:51;4.40;;;4.20;;
25653;SDS011;13511;48.622;9.230;2023-06-24T10:55:21;4.70;;;4.40;;
25653;SDS011;13511;48.622;9.230;2023-06-24T10:57:47;5.22;;;4.78;;
25653;SDS011;13511;48.622;9.230;2023-06-24T11:00:14;4.93;;;4.63;;
25653;SDS011;13511;48.622;9.230;2023-06-24T11:02:40;4.60;;;4.30;;
25653;SDS011;13511;48.622;9.230;2023-06-24T11:05:07;4.13;;;3.92;;
25653;SDS011;13511;48.622;9.230;2023-06-24T11:07:39;5.10;;;4.68;;
25653;SDS011;13511;48.622;9.230;2023-06-24T11:10:06;5.15;;;4.78;;
25653;SDS011;13511;48.622;9.230;2023-06-24T11:12:33;5.22;;;4.82;;
25653;SDS011;13511;48.622;9.230;2023-06-24T11:15:01;5.05;;;4.60;;
25653;SDS011;13511;48.622;9.230;2023-06-24T11:17:27;4.80;;;4.60;;
25653;SDS011;13511;48.622;9.230;2023-06-24T11:19:53;4.38;;;4.18;;
25653;SDS011;13511;48.622;9.230;2023-06-24T11:22:21;4.65;;;4.35;;
25653;SDS011;13511;48.622;9.230;2023-06-24T11:24:47;4.93;;;4.72;;
25653;SDS011;13511;48.622;9.230;2023-06-24T11:27:13;4.97;;;4.63;;
25653;SDS011;13511;48.622;9.230;2023-06-24T11:29:39;4.60;;;4.40;;
25653;SDS011;13511;48.622;9.230;2023-06-24T11:32:08;5.05;;;4.70;;
25653;SDS011;13511;48.622;9.230;2023-06-24T11:34:35;5.10;;;4.60;;
25653;SDS011;13511;48.622;9.230;2023-06-24T11:37:14;4.72;;;4.53;;
25653;SDS011;13511;48.622;9.230;2023-06-24T11:39:40;4.22;;;4.03;;
25653;SDS011;13511;48.622;9.230;2023-06-24T11:42:07;5.13;;;4.43;;
25653;SDS011;13511;48.622;9.230;2023-06-24T11:44:33;4.68;;;4.47;;
25653;SDS011;13511;48.622;9.230;2023-06-24T11:47:04;4.85;;;4.47;;
25653;SDS011;13511;48.622;9.230;2023-06-24T11:49:30;4.40;;;4.18;;
25653;SDS011;13511;48.622;9.230;2023-06-24T11:51:56;4.32;;;4.13;;
25653;SDS011;13511;48.622;9.230;2023-06-24T11:54:22;4.40;;;4.20;;
25653;SDS011;13511;48.622;9.230;2023-06-24T11:56:52;4.65;;;4.43;;
25653;SDS011;13511;48.622;9.230;2023-06-24T11:59:19;4.30;;;4.10;;
25653;SDS011;13511;48.622;9.230;2023-06-24T12:01:45;4.55;;;4.25;;
25653;SDS011;13511;48.622;9.230;2023-06-24T12:04:17;4.63;;;4.32;;
25653;SDS011;13511;48.622;9.230;2023-06-24T12:06:43;4.72;;;4.43;;
25653;SDS011;13511;48.622;9.230;2023-06-24T12:09:09;4.38;;;4.13;;
25653;SDS011;13511;48.622;9.230;2023-06-24T12:11:37;4.35;;;4.13;;
25653;SDS011;13511;48.622;9.230;2023-06-24T12:14:03;4.63;;;4.43;;
25653;SDS011;13511;48.622;9.230;2023-06-24T12:16:29;3.90;;;3.70;;
25653;SDS011;13511;48.622;9.230;2023-06-24T12:18:55;4.35;;;4.13;;
25653;SDS011;13511;48.622;9.230;2023-06-24T12:21:21;4.68;;;4.47;;
25653;SDS011;13511;48.622;9.230;2023-06-24T12:23:47;4.57;;;4.18;;
25653;SDS011;13511;48.622;9.230;2023-06-24T12:26:13;3.78;;;3.58;;
25653;SDS011;13511;48.622;9.230;2023-06-24T12:28:40;3.95;;;3.75;;
25653;SDS011;13511;48.622;9.230;2023-06-24T12:31:06;3.90;;;3.70;;
25653;SDS011;13511;48.622;9.230;2023-06-24T12:33:32;3.72;;;3.58;;
25653;SDS011;13511;48.622;9.230;2023-06-24T12:35:58;4.00;;;3.80;;
25653;SDS011;13511;48.622;9.230;2023-06-24T12:38:24;4.35;;;4.15;;
25653;SDS011;13511;48.622;9.230;2023-06-24T12:40:50;4.00;;;3.80;;
25653;SDS011;13511;48.622;9.230;2023-06-24T12:43:17;4.28;;;4.07;;
25653;SDS011;13511;48.622;9.230;2023-06-24T12:45:43;4.28;;;4.07;;
25653;SDS011;13511;48.622;9.230;2023-06-24T12:48:09;4.05;;;3.85;;
25653;SDS011;13511;48.622;9.230;2023-06-24T12:50:36;4.68;;;4.15;;
25653;SDS011;13511;48.622;9.230;2023-06-24T12:53:02;4.03;;;3.78;;
25653;SDS011;13511;48.622;9.230;2023-06-24T12:55:28;3.80;;;3.60;;
25653;SDS011;13511;48.622;9.230;2023-06-24T12:57:55;4.18;;;3.97;;
25653;SDS011;13511;48.622;9.230;2023-06-24T13:00:21;5.00;;;4.25;;
25653;SDS011;13511;48.622;9.230;2023-06-24T13:02:48;5.55;;;4.47;;
25653;SDS011;13511;48.622;9.230;2023-06-24T13:05:14;8.15;;;4.18;;
25653;SDS011;13511;48.622;9.230;2023-06-24T13:07:40;4.35;;;4.05;;
25653;SDS011;13511;48.622;9.230;2023-06-24T13:10:06;6.88;;;4.45;;
25653;SDS011;13511;48.622;9.230;2023-06-24T13:12:34;4.53;;;3.85;;
25653;SDS011;13511;48.622;9.230;2023-06-24T13:15:00;5.88;;;4.20;;
25653;SDS011;13511;48.622;9.230;2023-06-24T13:17:26;4.40;;;4.15;;
25653;SDS011;13511;48.622;9.230;2023-06-24T13:19:52;4.18;;;3.97;;
25653;SDS011;13511;48.622;9.230;2023-06-24T13:22:18;4.68;;;4.07;;
25653;SDS011;13511;48.622;9.230;2023-06-24T13:24:44;3.72;;;3.53;;
25653;SDS011;13511;48.622;9.230;2023-06-24T13:27:10;4.13;;;3.83;;
25653;SDS011;13511;48.622;9.230;2023-06-24T13:29:36;4.32;;;4.10;;
25653;SDS011;13511;48.622;9.230;2023-06-24T13:32:02;4.38;;;4.00;;
25653;SDS011;13511;48.622;9.230;2023-06-24T13:34:29;4.10;;;3.90;;
25653;SDS011;13511;48.622;9.230;2023-06-24T13:36:55;4.32;;;4.03;;
25653;SDS011;13511;48.622;9.230;2023-06-24T13:39:21;4.38;;;4.07;;
25653;SDS011;13511;48.622;9.230;2023-06-24T13:41:48;5.20;;;4.80;;
25653;SDS011;13511;48.622;9.230;2023-06-24T13:44:15;4.38;;;4.07;;
25653;SDS011;13511;48.622;9.230;2023-06-24T13:46:41;4.32;;;4.03;;
25653;SDS011;13511;48.622;9.230;2023-06-24T13:49:07;4.53;;;4.25;;
25653;SDS011;13511;48.622;9.230;2023-06-24T13:51:33;4.80;;;4.50;;
25653;SDS011;13511;48.622;9.230;2023-06-24T13:53:59;4.18;;;3.97;;
25653;SDS011;13511;48.622;9.230;2023-06-24T13:56:26;4.18;;;3.97;;
25653;SDS011;13511;48.622;9.230;2023-06-24T13:58:53;4.45;;;4.15;;
25653;SDS011;13511;48.622;9.230;2023-06-24T14:01:19;4.90;;;4.53;;
25653;SDS011;13511;48.622;9.230;2023-06-24T14:03:46;4.80;;;4.50;;
25653;SDS011;13511;48.622;9.230;2023-06-24T14:06:17;5.00;;;4.30;;
25653;SDS011;13511;48.622;9.230;2023-06-24T14:08:44;4.45;;;4.15;;
25653;SDS011;13511;48.622;9.230;2023-06-24T14:11:10;6.60;;;4.38;;
25653;SDS011;13511;48.622;9.230;2023-06-24T14:13:36;6.07;;;4.43;;
25653;SDS011;13511;48.622;9.230;2023-06-24T14:16:03;4.85;;;4.45;;
25653;SDS011;13511;48.622;9.230;2023-06-24T14:18:29;4.35;;;4.15;;
25653;SDS011;13511;48.622;9.230;2023-06-24T14:20:59;4.50;;;4.10;;
25653;SDS011;13511;48.622;9.230;2023-06-24T14:23:26;4.22;;;4.03;;
25653;SDS011;13511;48.622;9.230;2023-06-24T14:25:52;4.80;;;4.30;;
25653;SDS011;13511;48.622;9.230;2023-06-24T14:28:18;4.72;;;4.32;;
25653;SDS011;13511;48.622;9.230;2023-06-24T14:30:44;4.57;;;4.28;;
25653;SDS011;13511;48.622;9.230;2023-06-24T14:33:11;4.93;;;4.53;;
25653;SDS011;13511;48.622;9.230;2023-06-24T14:35:37;4.72;;;4.45;;
25653;SDS011;13511;48.622;9.230;2023-06-24T14:38:03;4.40;;;4.20;;
25653;SDS011;13511;48.622;9.230;2023-06-24T14:40:29;4.50;;;4.20;;
25653;SDS011;13511;48.622;9.230;2023-06-24T14:42:55;4.10;;;3.90;;
25653;SDS011;13511;48.622;9.230;2023-06-24T14:45:21;4.05;;;3.85;;
25653;SDS011;13511;48.622;9.230;2023-06-24T14:47:47;4.07;;;3.88;;
25653;SDS011;13511;48.622;9.230;2023-06-24T14:50:14;5.00;;;4.55;;
25653;SDS011;13511;48.622;9.230;2023-06-24T14:52:40;4.43;;;4.20;;